sensor_id;sensor_type;location;lat;lon;timestamp;temperature;humidity
18450;DHT22;9354;50.194;7.690;2023-07-31T00:00:43;18.80;99.90
18450;DHT22;9354;50.194;7.690;2023-07-31T00:03:12;18.70;99.90
18450;DHT22;9354;50.194;7.690;2023-07-31T00:05:41;18.70;99.90
18450;DHT22;9354;50.194;7.690;2023-07-31T00:08:09;18.70;99.90
18450;DHT22;9354;50.194;7.690;2023-07-31T00:10:36;18.70;99.90
18450;DHT22;9354;50.194;7.690;2023-07-31T00:13:04;18.70;99.90
18450;DHT22;9354;50.194;7.690;2023-07-31T00:15:31;18.70;99.90
18450;DHT22;9354;50.194;7.690;2023-07-31T00:17:58;18.70;99.90
18450;DHT22;9354;50.194;7.690;2023-07-31T00:20:27;18.60;99.90
18450;DHT22;9354;50.194;7.690;2023-07-31T00:22:56;18.60;99.90
18450;DHT22;9354;50.194;7.690;2023-07-31T00:25:23;18.60;99.90
18450;DHT22;9354;50.194;7.690;2023-07-31T00:27:50;18.60;99.90
18450;DHT22;9354;50.194;7.690;2023-07-31T00:30:18;18.60;99.90
18450;DHT22;9354;50.194;7.690;2023-07-31T00:32:45;18.60;99.90
18450;DHT22;9354;50.194;7.690;2023-07-31T00:35:12;18.60;99.90
18450;DHT22;9354;50.194;7.690;2023-07-31T00:37:40;18.50;99.90
18450;DHT22;9354;50.194;7.690;2023-07-31T00:40:09;18.50;99.90
18450;DHT22;9354;50.194;7.690;2023-07-31T00:42:37;18.50;99.90
18450;DHT22;9354;50.194;7.690;2023-07-31T00:45:05;18.40;99.90
18450;DHT22;9354;50.194;7.690;2023-07-31T00:47:32;18.40;99.90
18450;DHT22;9354;50.194;7.690;2023-07-31T00:50:00;18.40;99.90
18450;DHT22;9354;50.194;7.690;2023-07-31T00:52:27;18.40;99.90
18450;DHT22;9354;50.194;7.690;2023-07-31T00:54:55;18.40;99.90
18450;DHT22;9354;50.194;7.690;2023-07-31T00:57:24;18.40;99.90
18450;DHT22;9354;50.194;7.690;2023-07-31T00:59:51;18.40;99.90
18450;DHT22;9354;50.194;7.690;2023-07-31T01:02:18;18.40;99.90
18450;DHT22;9354;50.194;7.690;2023-07-31T01:04:46;18.40;99.90
18450;DHT22;9354;50.194;7.690;2023-07-31T01:07:20;18.40;99.90
18450;DHT22;9354;50.194;7.690;2023-07-31T01:09:56;18.40;99.90
18450;DHT22;9354;50.194;7.690;2023-07-31T01:12:27;18.40;99.90
18450;DHT22;9354;50.194;7.690;2023-07-31T01:15:03;18.30;99.90
18450;DHT22;9354;50.194;7.690;2023-07-31T01:17:30;18.30;99.90
18450;DHT22;9354;50.194;7.690;2023-07-31T01:20:01;18.30;99.90
18450;DHT22;9354;50.194;7.690;2023-07-31T01:22:39;18.30;99.90
18450;DHT22;9354;50.194;7.690;2023-07-31T01:25:16;18.30;99.90
18450;DHT22;9354;50.194;7.690;2023-07-31T01:27:55;18.20;99.90
18450;DHT22;9354;50.194;7.690;2023-07-31T01:30:29;18.20;99.90
18450;DHT22;9354;50.194;7.690;2023-07-31T01:33:02;18.20;99.90
18450;DHT22;9354;50.194;7.690;2023-07-31T01:35:33;18.20;99.90
18450;DHT22;9354;50.194;7.690;2023-07-31T01:38:00;18.10;99.90
18450;DHT22;9354;50.194;7.690;2023-07-31T01:40:28;18.10;99.90
18450;DHT22;9354;50.194;7.690;2023-07-31T01:42:57;18.10;99.90
18450;DHT22;9354;50.194;7.690;2023-07-31T01:45:24;18.10;99.90
18450;DHT22;9354;50.194;7.690;2023-07-31T01:47:51;18.10;99.90
18450;DHT22;9354;50.194;7.690;2023-07-31T01:50:19;18.10;99.90
18450;DHT22;9354;50.194;7.690;2023-07-31T01:52:46;18.00;99.90
18450;DHT22;9354;50.194;7.690;2023-07-31T01:55:13;18.00;99.90
18450;DHT22;9354;50.194;7.690;2023-07-31T01:57:41;18.00;99.90
18450;DHT22;9354;50.194;7.690;2023-07-31T02:00:10;18.00;99.90
18450;DHT22;9354;50.194;7.690;2023-07-31T02:02:38;18.00;99.90
18450;DHT22;9354;50.194;7.690;2023-07-31T02:05:06;18.10;99.90
18450;DHT22;9354;50.194;7.690;2023-07-31T02:07:33;18.10;99.90
18450;DHT22;9354;50.194;7.690;2023-07-31T02:10:00;18.00;99.90
18450;DHT22;9354;50.194;7.690;2023-07-31T02:12:28;18.00;99.90
18450;DHT22;9354;50.194;7.690;2023-07-31T02:14:58;18.00;99.90
18450;DHT22;9354;50.194;7.690;2023-07-31T02:17:26;18.00;99.90
18450;DHT22;9354;50.194;7.690;2023-07-31T02:19:54;18.00;99.90
18450;DHT22;9354;50.194;7.690;2023-07-31T02:22:22;18.00;99.90
18450;DHT22;9354;50.194;7.690;2023-07-31T02:24:49;18.00;99.90
18450;DHT22;9354;50.194;7.690;2023-07-31T02:27:16;18.00;99.90
18450;DHT22;9354;50.194;7.690;2023-07-31T02:29:44;18.00;99.90
18450;DHT22;9354;50.194;7.690;2023-07-31T02:32:11;17.90;99.90
18450;DHT22;9354;50.194;7.690;2023-07-31T02:34:40;17.90;99.90
18450;DHT22;9354;50.194;7.690;2023-07-31T02:37:07;17.90;99.90
18450;DHT22;9354;50.194;7.690;2023-07-31T02:39:35;17.90;99.90
18450;DHT22;9354;50.194;7.690;2023-07-31T02:42:02;17.90;99.90
18450;DHT22;9354;50.194;7.690;2023-07-31T02:44:30;17.90;99.90
18450;DHT22;9354;50.194;7.690;2023-07-31T02:46:57;17.90;99.90
18450;DHT22;9354;50.194;7.690;2023-07-31T02:49:25;17.90;99.90
18450;DHT22;9354;50.194;7.690;2023-07-31T02:51:53;17.80;99.90
18450;DHT22;9354;50.194;7.690;2023-07-31T02:54:21;17.80;99.90
18450;DHT22;9354;50.194;7.690;2023-07-31T02:56:48;17.80;99.90
18450;DHT22;9354;50.194;7.690;2023-07-31T02:59:17;17.80;99.90
18450;DHT22;9354;50.194;7.690;2023-07-31T03:01:45;17.80;99.90
18450;DHT22;9354;50.194;7.690;2023-07-31T03:04:12;17.80;99.90
18450;DHT22;9354;50.194;7.690;2023-07-31T03:06:39;17.80;99.90
18450;DHT22;9354;50.194;7.690;2023-07-31T03:09:08;17.80;99.90
18450;DHT22;9354;50.194;7.690;2023-07-31T03:11:35;17.80;99.90
18450;DHT22;9354;50.194;7.690;2023-07-31T03:14:03;17.80;99.90
18450;DHT22;9354;50.194;7.690;2023-07-31T03:16:30;17.80;99.90
18450;DHT22;9354;50.194;7.690;2023-07-31T03:18:57;17.70;99.90
18450;DHT22;9354;50.194;7.690;2023-07-31T03:21:25;17.70;99.90
18450;DHT22;9354;50.194;7.690;2023-07-31T03:23:52;17.70;99.90
18450;DHT22;9354;50.194;7.690;2023-07-31T03:26:21;17.70;99.90
18450;DHT22;9354;50.194;7.690;2023-07-31T03:28:48;17.70;99.90
18450;DHT22;9354;50.194;7.690;2023-07-31T03:31:16;17.70;99.90
18450;DHT22;9354;50.194;7.690;2023-07-31T03:33:43;17.70;99.90
18450;DHT22;9354;50.194;7.690;2023-07-31T03:36:11;17.70;99.90
18450;DHT22;9354;50.194;7.690;2023-07-31T03:38:38;17.70;99.90
18450;DHT22;9354;50.194;7.690;2023-07-31T03:41:06;17.70;99.90
18450;DHT22;9354;50.194;7.690;2023-07-31T03:43:34;17.60;99.90
18450;DHT22;9354;50.194;7.690;2023-07-31T03:46:02;17.60;99.90
18450;DHT22;9354;50.194;7.690;2023-07-31T03:48:29;17.60;99.90
18450;DHT22;9354;50.194;7.690;2023-07-31T03:50:57;17.60;99.90
18450;DHT22;9354;50.194;7.690;2023-07-31T03:53:24;17.60;99.90
18450;DHT22;9354;50.194;7.690;2023-07-31T03:55:51;17.70;99.90
18450;DHT22;9354;50.194;7.690;2023-07-31T03:58:19;17.60;99.90
18450;DHT22;9354;50.194;7.690;2023-07-31T04:00:47;17.60;99.90
18450;DHT22;9354;50.194;7.690;2023-07-31T04:03:15;17.60;99.90
18450;DHT22;9354;50.194;7.690;2023-07-31T04:05:42;17.60;99.90
18450;DHT22;9354;50.194;7.690;2023-07-31T04:08:09;17.60;99.90
18450;DHT22;9354;50.194;7.690;2023-07-31T04:10:37;17.60;99.90
18450;DHT22;9354;50.194;7.690;2023-07-31T04:13:04;17.50;99.90
18450;DHT22;9354;50.194;7.690;2023-07-31T04:15:32;17.50;99.90
18450;DHT22;9354;50.194;7.690;2023-07-31T04:18:00;17.50;99.90
18450;DHT22;9354;50.194;7.690;2023-07-31T04:20:28;17.50;99.90
18450;DHT22;9354;50.194;7.690;2023-07-31T04:22:55;17.50;99.90
18450;DHT22;9354;50.194;7.690;2023-07-31T04:25:22;17.50;99.90
18450;DHT22;9354;50.194;7.690;2023-07-31T04:27:50;17.50;99.90
18450;DHT22;9354;50.194;7.690;2023-07-31T04:30:17;17.50;99.90
18450;DHT22;9354;50.194;7.690;2023-07-31T04:32:45;17.50;99.90
18450;DHT22;9354;50.194;7.690;2023-07-31T04:35:13;17.50;99.90
18450;DHT22;9354;50.194;7.690;2023-07-31T04:37:41;17.50;99.90
18450;DHT22;9354;50.194;7.690;2023-07-31T04:40:09;17.40;99.90
18450;DHT22;9354;50.194;7.690;2023-07-31T04:42:36;17.40;99.90
18450;DHT22;9354;50.194;7.690;2023-07-31T04:45:04;17.30;99.90
18450;DHT22;9354;50.194;7.690;2023-07-31T04:47:32;17.30;99.90
18450;DHT22;9354;50.194;7.690;2023-07-31T04:49:59;17.20;99.90
18450;DHT22;9354;50.194;7.690;2023-07-31T04:52:28;17.20;99.90
18450;DHT22;9354;50.194;7.690;2023-07-31T04:54:58;17.20;99.90
18450;DHT22;9354;50.194;7.690;2023-07-31T04:57:26;17.20;99.90
18450;DHT22;9354;50.194;7.690;2023-07-31T04:59:53;17.20;99.90
18450;DHT22;9354;50.194;7.690;2023-07-31T05:02:20;17.20;99.90
18450;DHT22;9354;50.194;7.690;2023-07-31T05:04:48;17.10;99.90
18450;DHT22;9354;50.194;7.690;2023-07-31T05:07:15;17.10;99.90
18450;DHT22;9354;50.194;7.690;2023-07-31T05:09:44;17.10;99.90
18450;DHT22;9354;50.194;7.690;2023-07-31T05:12:12;17.00;99.90
18450;DHT22;9354;50.194;7.690;2023-07-31T05:14:39;17.00;99.90
18450;DHT22;9354;50.194;7.690;2023-07-31T05:17:06;17.00;99.90
18450;DHT22;9354;50.194;7.690;2023-07-31T05:19:34;17.00;99.90
18450;DHT22;9354;50.194;7.690;2023-07-31T05:22:01;17.10;99.90
18450;DHT22;9354;50.194;7.690;2023-07-31T05:24:28;17.10;99.90
18450;DHT22;9354;50.194;7.690;2023-07-31T05:26:57;17.20;99.90
18450;DHT22;9354;50.194;7.690;2023-07-31T05:29:24;17.20;99.90
18450;DHT22;9354;50.194;7.690;2023-07-31T05:31:52;17.30;99.90
18450;DHT22;9354;50.194;7.690;2023-07-31T05:34:19;17.30;99.90
18450;DHT22;9354;50.194;7.690;2023-07-31T05:36:46;17.40;99.90
18450;DHT22;9354;50.194;7.690;2023-07-31T05:39:14;17.40;99.90
18450;DHT22;9354;50.194;7.690;2023-07-31T05:41:41;17.40;99.90
18450;DHT22;9354;50.194;7.690;2023-07-31T05:44:10;17.40;99.90
18450;DHT22;9354;50.194;7.690;2023-07-31T05:46:37;17.50;99.90
18450;DHT22;9354;50.194;7.690;2023-07-31T05:49:06;17.40;99.90
18450;DHT22;9354;50.194;7.690;2023-07-31T05:51:34;17.50;99.90
18450;DHT22;9354;50.194;7.690;2023-07-31T05:54:01;17.60;99.90
18450;DHT22;9354;50.194;7.690;2023-07-31T05:56:28;17.70;99.90
18450;DHT22;9354;50.194;7.690;2023-07-31T05:58:56;17.70;99.90
18450;DHT22;9354;50.194;7.690;2023-07-31T06:01:24;17.80;99.90
18450;DHT22;9354;50.194;7.690;2023-07-31T06:03:52;17.90;99.90
18450;DHT22;9354;50.194;7.690;2023-07-31T06:06:19;17.90;99.90
18450;DHT22;9354;50.194;7.690;2023-07-31T06:08:46;18.00;99.90
18450;DHT22;9354;50.194;7.690;2023-07-31T06:11:14;18.00;99.90
18450;DHT22;9354;50.194;7.690;2023-07-31T06:13:41;18.10;99.90
18450;DHT22;9354;50.194;7.690;2023-07-31T06:16:10;18.10;99.90
18450;DHT22;9354;50.194;7.690;2023-07-31T06:18:39;18.10;99.90
18450;DHT22;9354;50.194;7.690;2023-07-31T06:21:07;18.10;99.90
18450;DHT22;9354;50.194;7.690;2023-07-31T06:23:34;18.20;99.90
18450;DHT22;9354;50.194;7.690;2023-07-31T06:26:01;18.20;99.90
18450;DHT22;9354;50.194;7.690;2023-07-31T06:28:30;18.30;99.90
18450;DHT22;9354;50.194;7.690;2023-07-31T06:30:57;18.30;99.90
18450;DHT22;9354;50.194;7.690;2023-07-31T06:33:25;18.40;99.90
18450;DHT22;9354;50.194;7.690;2023-07-31T06:35:54;18.50;99.90
18450;DHT22;9354;50.194;7.690;2023-07-31T06:38:24;18.50;99.90
18450;DHT22;9354;50.194;7.690;2023-07-31T06:40:52;18.60;99.90
18450;DHT22;9354;50.194;7.690;2023-07-31T06:43:19;18.70;99.90
18450;DHT22;9354;50.194;7.690;2023-07-31T06:45:46;18.70;99.90
18450;DHT22;9354;50.194;7.690;2023-07-31T06:48:16;18.70;99.90
18450;DHT22;9354;50.194;7.690;2023-07-31T06:50:43;18.80;99.90
18450;DHT22;9354;50.194;7.690;2023-07-31T06:53:12;18.80;99.90
18450;DHT22;9354;50.194;7.690;2023-07-31T06:55:40;18.80;99.90
18450;DHT22;9354;50.194;7.690;2023-07-31T06:58:07;18.70;99.90
18450;DHT22;9354;50.194;7.690;2023-07-31T07:00:34;18.70;99.90
18450;DHT22;9354;50.194;7.690;2023-07-31T07:03:02;18.70;99.90
18450;DHT22;9354;50.194;7.690;2023-07-31T07:05:29;18.70;99.90
18450;DHT22;9354;50.194;7.690;2023-07-31T07:07:57;18.70;99.90
18450;DHT22;9354;50.194;7.690;2023-07-31T07:10:25;18.60;99.90
18450;DHT22;9354;50.194;7.690;2023-07-31T07:12:53;18.60;99.90
18450;DHT22;9354;50.194;7.690;2023-07-31T07:15:21;18.50;99.90
18450;DHT22;9354;50.194;7.690;2023-07-31T07:17:49;18.50;99.90
18450;DHT22;9354;50.194;7.690;2023-07-31T07:20:16;18.60;99.90
18450;DHT22;9354;50.194;7.690;2023-07-31T07:22:45;18.60;99.90
18450;DHT22;9354;50.194;7.690;2023-07-31T07:25:12;18.60;99.90
18450;DHT22;9354;50.194;7.690;2023-07-31T07:27:41;18.60;99.90
18450;DHT22;9354;50.194;7.690;2023-07-31T07:30:09;18.60;99.90
18450;DHT22;9354;50.194;7.690;2023-07-31T07:32:37;18.60;99.90
18450;DHT22;9354;50.194;7.690;2023-07-31T07:35:05;18.60;99.90
18450;DHT22;9354;50.194;7.690;2023-07-31T07:37:33;18.70;99.90
18450;DHT22;9354;50.194;7.690;2023-07-31T07:40:00;18.90;99.90
18450;DHT22;9354;50.194;7.690;2023-07-31T07:42:27;19.00;99.90
18450;DHT22;9354;50.194;7.690;2023-07-31T07:44:56;19.10;99.90
18450;DHT22;9354;50.194;7.690;2023-07-31T07:47:23;19.20;99.90
18450;DHT22;9354;50.194;7.690;2023-07-31T07:49:51;19.20;99.90
18450;DHT22;9354;50.194;7.690;2023-07-31T07:52:18;19.20;99.90
18450;DHT22;9354;50.194;7.690;2023-07-31T07:54:46;19.20;99.90
18450;DHT22;9354;50.194;7.690;2023-07-31T07:57:13;19.20;99.90
18450;DHT22;9354;50.194;7.690;2023-07-31T07:59:40;19.10;99.90
18450;DHT22;9354;50.194;7.690;2023-07-31T08:02:09;19.10;99.90
18450;DHT22;9354;50.194;7.690;2023-07-31T08:04:37;19.10;99.90
18450;DHT22;9354;50.194;7.690;2023-07-31T08:07:04;19.10;99.90
18450;DHT22;9354;50.194;7.690;2023-07-31T08:09:32;19.10;99.90
18450;DHT22;9354;50.194;7.690;2023-07-31T08:11:59;19.00;99.90
18450;DHT22;9354;50.194;7.690;2023-07-31T08:14:29;19.00;99.90
18450;DHT22;9354;50.194;7.690;2023-07-31T08:16:56;19.00;99.90
18450;DHT22;9354;50.194;7.690;2023-07-31T08:19:25;19.00;99.90
18450;DHT22;9354;50.194;7.690;2023-07-31T08:21:52;19.00;99.90
18450;DHT22;9354;50.194;7.690;2023-07-31T08:24:20;19.00;99.90
18450;DHT22;9354;50.194;7.690;2023-07-31T08:26:47;19.00;99.90
18450;DHT22;9354;50.194;7.690;2023-07-31T08:29:15;19.00;99.90
18450;DHT22;9354;50.194;7.690;2023-07-31T08:31:42;19.00;99.90
18450;DHT22;9354;50.194;7.690;2023-07-31T08:34:10;19.00;99.90
18450;DHT22;9354;50.194;7.690;2023-07-31T08:36:38;18.90;99.90
18450;DHT22;9354;50.194;7.690;2023-07-31T08:39:06;18.80;99.90
18450;DHT22;9354;50.194;7.690;2023-07-31T08:41:37;18.70;99.90
18450;DHT22;9354;50.194;7.690;2023-07-31T08:44:06;18.70;99.90
18450;DHT22;9354;50.194;7.690;2023-07-31T08:46:34;18.70;99.90
18450;DHT22;9354;50.194;7.690;2023-07-31T08:49:04;18.70;99.90
18450;DHT22;9354;50.194;7.690;2023-07-31T08:51:34;18.70;99.90
18450;DHT22;9354;50.194;7.690;2023-07-31T08:54:03;18.70;99.90
18450;DHT22;9354;50.194;7.690;2023-07-31T08:56:32;18.70;99.90
18450;DHT22;9354;50.194;7.690;2023-07-31T08:59:02;18.70;99.90
18450;DHT22;9354;50.194;7.690;2023-07-31T09:01:30;18.70;99.90
18450;DHT22;9354;50.194;7.690;2023-07-31T09:04:02;18.80;99.90
18450;DHT22;9354;50.194;7.690;2023-07-31T09:06:32;18.80;99.90
18450;DHT22;9354;50.194;7.690;2023-07-31T09:09:00;18.80;99.90
18450;DHT22;9354;50.194;7.690;2023-07-31T09:11:29;18.90;99.90
18450;DHT22;9354;50.194;7.690;2023-07-31T09:13:57;18.90;99.90
18450;DHT22;9354;50.194;7.690;2023-07-31T09:16:28;19.00;99.90
18450;DHT22;9354;50.194;7.690;2023-07-31T09:18:58;19.00;99.90
18450;DHT22;9354;50.194;7.690;2023-07-31T09:21:27;19.00;99.90
18450;DHT22;9354;50.194;7.690;2023-07-31T09:23:55;19.00;99.90
18450;DHT22;9354;50.194;7.690;2023-07-31T09:26:31;19.10;99.90
18450;DHT22;9354;50.194;7.690;2023-07-31T09:28:59;19.10;99.90
18450;DHT22;9354;50.194;7.690;2023-07-31T09:31:33;19.10;99.90
18450;DHT22;9354;50.194;7.690;2023-07-31T09:34:05;19.10;99.90
18450;DHT22;9354;50.194;7.690;2023-07-31T09:36:32;19.20;99.90
18450;DHT22;9354;50.194;7.690;2023-07-31T09:39:02;19.20;99.90
18450;DHT22;9354;50.194;7.690;2023-07-31T09:41:31;19.20;99.90
18450;DHT22;9354;50.194;7.690;2023-07-31T09:44:03;19.20;99.90
18450;DHT22;9354;50.194;7.690;2023-07-31T09:46:31;19.20;99.90
18450;DHT22;9354;50.194;7.690;2023-07-31T09:49:08;19.20;99.90
18450;DHT22;9354;50.194;7.690;2023-07-31T09:51:36;19.20;99.90
18450;DHT22;9354;50.194;7.690;2023-07-31T09:54:11;19.30;99.90
18450;DHT22;9354;50.194;7.690;2023-07-31T09:56:42;19.30;99.90
18450;DHT22;9354;50.194;7.690;2023-07-31T09:59:12;19.30;99.90
18450;DHT22;9354;50.194;7.690;2023-07-31T10:01:41;19.40;99.90
18450;DHT22;9354;50.194;7.690;2023-07-31T10:04:09;19.40;99.90
18450;DHT22;9354;50.194;7.690;2023-07-31T10:06:40;19.40;99.90
18450;DHT22;9354;50.194;7.690;2023-07-31T10:09:09;19.50;99.90
18450;DHT22;9354;50.194;7.690;2023-07-31T10:11:38;19.50;99.90
18450;DHT22;9354;50.194;7.690;2023-07-31T10:14:11;19.50;99.90
18450;DHT22;9354;50.194;7.690;2023-07-31T10:16:39;19.60;99.90
18450;DHT22;9354;50.194;7.690;2023-07-31T10:19:08;19.60;99.90
18450;DHT22;9354;50.194;7.690;2023-07-31T10:21:36;19.70;99.90
18450;DHT22;9354;50.194;7.690;2023-07-31T10:24:05;19.70;99.90
18450;DHT22;9354;50.194;7.690;2023-07-31T10:26:32;19.80;99.90
18450;DHT22;9354;50.194;7.690;2023-07-31T10:29:00;19.80;99.90
18450;DHT22;9354;50.194;7.690;2023-07-31T10:31:29;19.90;99.90
18450;DHT22;9354;50.194;7.690;2023-07-31T10:33:57;19.90;99.90
18450;DHT22;9354;50.194;7.690;2023-07-31T10:36:25;20.00;99.90
18450;DHT22;9354;50.194;7.690;2023-07-31T10:38:54;20.00;99.90
18450;DHT22;9354;50.194;7.690;2023-07-31T10:41:28;20.10;99.90
18450;DHT22;9354;50.194;7.690;2023-07-31T10:43:57;20.20;99.90
18450;DHT22;9354;50.194;7.690;2023-07-31T10:46:25;20.40;99.90
18450;DHT22;9354;50.194;7.690;2023-07-31T10:49:00;20.40;99.90
18450;DHT22;9354;50.194;7.690;2023-07-31T10:51:37;20.50;99.90
18450;DHT22;9354;50.194;7.690;2023-07-31T10:54:11;20.50;99.90
18450;DHT22;9354;50.194;7.690;2023-07-31T10:56:38;20.60;99.90
18450;DHT22;9354;50.194;7.690;2023-07-31T10:59:06;20.70;99.90
18450;DHT22;9354;50.194;7.690;2023-07-31T11:01:53;20.80;99.90
18450;DHT22;9354;50.194;7.690;2023-07-31T11:04:26;20.90;99.90
18450;DHT22;9354;50.194;7.690;2023-07-31T11:06:57;21.00;99.90
18450;DHT22;9354;50.194;7.690;2023-07-31T11:09:27;21.00;99.90
18450;DHT22;9354;50.194;7.690;2023-07-31T11:11:56;21.10;99.90
18450;DHT22;9354;50.194;7.690;2023-07-31T11:14:23;21.10;99.90
18450;DHT22;9354;50.194;7.690;2023-07-31T11:16:51;21.10;99.90
18450;DHT22;9354;50.194;7.690;2023-07-31T11:19:22;21.10;99.90
18450;DHT22;9354;50.194;7.690;2023-07-31T11:21:51;21.10;99.90
18450;DHT22;9354;50.194;7.690;2023-07-31T11:24:20;21.10;99.90
18450;DHT22;9354;50.194;7.690;2023-07-31T11:26:50;21.00;99.90
18450;DHT22;9354;50.194;7.690;2023-07-31T11:29:18;21.00;99.90
18450;DHT22;9354;50.194;7.690;2023-07-31T11:31:47;21.00;99.90
18450;DHT22;9354;50.194;7.690;2023-07-31T11:34:15;20.90;99.90
18450;DHT22;9354;50.194;7.690;2023-07-31T11:36:54;20.90;99.90
18450;DHT22;9354;50.194;7.690;2023-07-31T11:39:21;20.90;99.90
18450;DHT22;9354;50.194;7.690;2023-07-31T11:41:49;20.90;99.90
18450;DHT22;9354;50.194;7.690;2023-07-31T11:44:16;20.90;99.90
18450;DHT22;9354;50.194;7.690;2023-07-31T11:46:44;20.90;99.90
18450;DHT22;9354;50.194;7.690;2023-07-31T11:49:11;20.90;99.90
18450;DHT22;9354;50.194;7.690;2023-07-31T11:51:39;20.90;99.90
18450;DHT22;9354;50.194;7.690;2023-07-31T11:54:07;20.90;99.90
18450;DHT22;9354;50.194;7.690;2023-07-31T11:56:35;20.90;99.90
18450;DHT22;9354;50.194;7.690;2023-07-31T11:59:03;21.00;99.90
18450;DHT22;9354;50.194;7.690;2023-07-31T12:01:32;21.10;99.90
18450;DHT22;9354;50.194;7.690;2023-07-31T12:04:00;21.20;99.90
18450;DHT22;9354;50.194;7.690;2023-07-31T12:06:33;21.30;99.90
18450;DHT22;9354;50.194;7.690;2023-07-31T12:09:02;21.40;99.90
18450;DHT22;9354;50.194;7.690;2023-07-31T12:11:31;21.40;99.90
18450;DHT22;9354;50.194;7.690;2023-07-31T12:14:19;21.50;99.90
18450;DHT22;9354;50.194;7.690;2023-07-31T12:16:47;21.60;99.90
18450;DHT22;9354;50.194;7.690;2023-07-31T12:19:14;21.70;99.90
18450;DHT22;9354;50.194;7.690;2023-07-31T12:21:41;21.90;99.90
18450;DHT22;9354;50.194;7.690;2023-07-31T12:24:09;22.10;99.90
18450;DHT22;9354;50.194;7.690;2023-07-31T12:26:38;22.30;99.90
18450;DHT22;9354;50.194;7.690;2023-07-31T12:29:07;22.50;99.90
18450;DHT22;9354;50.194;7.690;2023-07-31T12:31:34;22.70;99.90
18450;DHT22;9354;50.194;7.690;2023-07-31T12:34:02;22.80;99.90
18450;DHT22;9354;50.194;7.690;2023-07-31T12:36:30;22.90;99.90
18450;DHT22;9354;50.194;7.690;2023-07-31T12:39:01;23.00;99.90
18450;DHT22;9354;50.194;7.690;2023-07-31T12:41:29;23.10;99.90
18450;DHT22;9354;50.194;7.690;2023-07-31T12:43:57;23.20;99.90
18450;DHT22;9354;50.194;7.690;2023-07-31T12:46:25;23.30;99.90
18450;DHT22;9354;50.194;7.690;2023-07-31T12:48:52;23.50;99.90
18450;DHT22;9354;50.194;7.690;2023-07-31T12:51:20;23.60;99.90
18450;DHT22;9354;50.194;7.690;2023-07-31T12:53:48;23.60;99.90
18450;DHT22;9354;50.194;7.690;2023-07-31T12:56:15;23.60;99.90
18450;DHT22;9354;50.194;7.690;2023-07-31T12:58:43;23.50;99.90
18450;DHT22;9354;50.194;7.690;2023-07-31T13:01:12;23.30;99.90
18450;DHT22;9354;50.194;7.690;2023-07-31T13:03:39;23.20;99.90
18450;DHT22;9354;50.194;7.690;2023-07-31T13:06:07;23.00;99.90
18450;DHT22;9354;50.194;7.690;2023-07-31T13:08:34;22.70;99.90
18450;DHT22;9354;50.194;7.690;2023-07-31T13:11:01;22.50;99.90
18450;DHT22;9354;50.194;7.690;2023-07-31T13:13:29;22.30;99.90
18450;DHT22;9354;50.194;7.690;2023-07-31T13:15:57;22.20;99.90
18450;DHT22;9354;50.194;7.690;2023-07-31T13:18:25;22.00;99.90
18450;DHT22;9354;50.194;7.690;2023-07-31T13:20:52;21.80;99.90
18450;DHT22;9354;50.194;7.690;2023-07-31T13:23:19;21.70;99.90
18450;DHT22;9354;50.194;7.690;2023-07-31T13:25:47;21.60;99.90
18450;DHT22;9354;50.194;7.690;2023-07-31T13:28:14;21.60;99.90
18450;DHT22;9354;50.194;7.690;2023-07-31T13:30:41;21.50;99.90
18450;DHT22;9354;50.194;7.690;2023-07-31T13:33:09;21.40;99.90
18450;DHT22;9354;50.194;7.690;2023-07-31T13:35:37;21.40;99.90
18450;DHT22;9354;50.194;7.690;2023-07-31T13:38:05;21.30;99.90
18450;DHT22;9354;50.194;7.690;2023-07-31T13:40:33;21.20;99.90
18450;DHT22;9354;50.194;7.690;2023-07-31T13:43:00;21.10;99.90
18450;DHT22;9354;50.194;7.690;2023-07-31T13:45:27;21.00;99.90
18450;DHT22;9354;50.194;7.690;2023-07-31T13:47:55;20.90;99.90
18450;DHT22;9354;50.194;7.690;2023-07-31T13:50:22;20.80;99.90
18450;DHT22;9354;50.194;7.690;2023-07-31T13:52:52;20.70;99.90
18450;DHT22;9354;50.194;7.690;2023-07-31T13:55:19;20.70;99.90
18450;DHT22;9354;50.194;7.690;2023-07-31T13:57:47;20.70;99.90
18450;DHT22;9354;50.194;7.690;2023-07-31T14:00:15;20.70;99.90
18450;DHT22;9354;50.194;7.690;2023-07-31T14:02:42;20.70;99.90
18450;DHT22;9354;50.194;7.690;2023-07-31T14:05:10;20.70;99.90
18450;DHT22;9354;50.194;7.690;2023-07-31T14:07:37;20.70;99.90
18450;DHT22;9354;50.194;7.690;2023-07-31T14:10:07;20.70;99.90
18450;DHT22;9354;50.194;7.690;2023-07-31T14:12:34;20.70;99.90
18450;DHT22;9354;50.194;7.690;2023-07-31T14:15:02;20.60;99.90
18450;DHT22;9354;50.194;7.690;2023-07-31T14:17:30;20.60;99.90
18450;DHT22;9354;50.194;7.690;2023-07-31T14:19:57;20.60;99.90
18450;DHT22;9354;50.194;7.690;2023-07-31T14:22:28;20.60;99.90
18450;DHT22;9354;50.194;7.690;2023-07-31T14:24:56;20.70;99.90
18450;DHT22;9354;50.194;7.690;2023-07-31T14:27:25;20.70;99.90
18450;DHT22;9354;50.194;7.690;2023-07-31T14:29:52;20.80;99.90
18450;DHT22;9354;50.194;7.690;2023-07-31T14:32:21;20.90;99.90
18450;DHT22;9354;50.194;7.690;2023-07-31T14:34:49;21.00;99.90
18450;DHT22;9354;50.194;7.690;2023-07-31T14:37:18;21.10;99.90
18450;DHT22;9354;50.194;7.690;2023-07-31T14:39:46;21.20;99.90
18450;DHT22;9354;50.194;7.690;2023-07-31T14:42:13;21.20;99.90
18450;DHT22;9354;50.194;7.690;2023-07-31T14:44:43;21.20;99.90
18450;DHT22;9354;50.194;7.690;2023-07-31T14:47:13;21.10;99.90
18450;DHT22;9354;50.194;7.690;2023-07-31T14:49:40;21.00;99.90
18450;DHT22;9354;50.194;7.690;2023-07-31T14:52:07;20.90;99.90
18450;DHT22;9354;50.194;7.690;2023-07-31T14:54:35;20.70;99.90
18450;DHT22;9354;50.194;7.690;2023-07-31T14:57:03;20.60;99.90
18450;DHT22;9354;50.194;7.690;2023-07-31T14:59:31;20.40;99.90
18450;DHT22;9354;50.194;7.690;2023-07-31T15:01:59;20.30;99.90
18450;DHT22;9354;50.194;7.690;2023-07-31T15:04:27;20.20;99.90
18450;DHT22;9354;50.194;7.690;2023-07-31T15:06:57;20.20;99.90
18450;DHT22;9354;50.194;7.690;2023-07-31T15:09:24;20.10;99.90
18450;DHT22;9354;50.194;7.690;2023-07-31T15:11:51;20.00;99.90
18450;DHT22;9354;50.194;7.690;2023-07-31T15:14:19;19.90;99.90
18450;DHT22;9354;50.194;7.690;2023-07-31T15:16:46;19.80;99.90
18450;DHT22;9354;50.194;7.690;2023-07-31T15:19:15;19.70;99.90
18450;DHT22;9354;50.194;7.690;2023-07-31T15:21:43;19.70;99.90
18450;DHT22;9354;50.194;7.690;2023-07-31T15:24:10;19.60;99.90
18450;DHT22;9354;50.194;7.690;2023-07-31T15:26:38;19.60;99.90
18450;DHT22;9354;50.194;7.690;2023-07-31T15:29:07;19.50;99.90
18450;DHT22;9354;50.194;7.690;2023-07-31T15:31:38;19.50;99.90
18450;DHT22;9354;50.194;7.690;2023-07-31T15:34:05;19.40;99.90
18450;DHT22;9354;50.194;7.690;2023-07-31T15:36:34;19.40;99.90
18450;DHT22;9354;50.194;7.690;2023-07-31T15:39:02;19.30;99.90
18450;DHT22;9354;50.194;7.690;2023-07-31T15:41:29;19.30;99.90
18450;DHT22;9354;50.194;7.690;2023-07-31T15:43:57;19.30;99.90
18450;DHT22;9354;50.194;7.690;2023-07-31T15:46:24;19.30;99.90
18450;DHT22;9354;50.194;7.690;2023-07-31T15:48:51;19.30;99.90
18450;DHT22;9354;50.194;7.690;2023-07-31T15:51:19;19.30;99.90